createdAt,value
2023-07-14T00:00:56.865Z,8.80
2023-07-14T00:03:46.222Z,11.40
2023-07-14T00:06:36.956Z,10.90
2023-07-14T00:09:27.024Z,11.80
2023-07-14T00:12:15.664Z,9.20
2023-07-14T00:15:04.655Z,11.20
2023-07-14T00:17:58.431Z,11.10
2023-07-14T00:20:49.266Z,10.70
2023-07-14T00:23:38.067Z,8.10
2023-07-14T00:26:27.623Z,7.40
2023-07-14T00:29:31.470Z,10.00
2023-07-14T00:32:21.370Z,12.50
2023-07-14T00:35:20.222Z,12.80
2023-07-14T00:38:09.370Z,11.40
2023-07-14T00:40:57.731Z,12.10
2023-07-14T00:43:49.876Z,11.80
2023-07-14T00:46:38.802Z,13.90
2023-07-14T00:49:36.520Z,11.50
2023-07-14T00:52:29.297Z,12.70
2023-07-14T00:55:36.590Z,11.80
2023-07-14T00:58:26.243Z,12.50
2023-07-14T01:01:23.606Z,13.50
2023-07-14T01:04:12.117Z,15.40
2023-07-14T01:07:00.098Z,13.60
2023-07-14T01:09:48.942Z,14.90
2023-07-14T01:12:38.521Z,14.10
2023-07-14T01:15:26.796Z,14.50
2023-07-14T01:18:15.423Z,11.50
2023-07-14T01:21:03.349Z,11.60
2023-07-14T01:23:59.435Z,10.30
2023-07-14T01:27:05.840Z,13.00
2023-07-14T01:29:54.465Z,7.50
2023-07-14T01:32:45.228Z,7.00
2023-07-14T01:35:36.597Z,9.20
2023-07-14T01:38:25.413Z,11.30
2023-07-14T01:41:14.074Z,9.10
2023-07-14T01:44:04.113Z,8.50
2023-07-14T01:46:52.502Z,7.00
2023-07-14T01:49:44.143Z,7.60
2023-07-14T01:52:32.441Z,7.60
2023-07-14T01:55:22.023Z,6.90
2023-07-14T01:58:17.715Z,6.30
2023-07-14T02:01:05.488Z,6.80
2023-07-14T02:03:55.128Z,5.60
2023-07-14T02:06:44.005Z,8.10
2023-07-14T02:09:32.073Z,5.10
2023-07-14T02:12:29.291Z,6.40
2023-07-14T02:15:18.967Z,6.50
2023-07-14T02:18:10.836Z,6.10
2023-07-14T02:23:47.211Z,8.10
2023-07-14T02:26:37.121Z,7.60
2023-07-14T02:29:26.329Z,7.30
2023-07-14T02:32:32.905Z,2.30
2023-07-14T02:35:30.807Z,6.20
2023-07-14T02:38:19.141Z,5.20
2023-07-14T02:41:37.913Z,8.20
2023-07-14T02:44:33.997Z,4.50
2023-07-14T02:47:23.593Z,4.00
2023-07-14T02:50:12.028Z,4.30
2023-07-14T02:53:00.885Z,8.00
2023-07-14T02:55:49.451Z,4.70
2023-07-14T02:58:37.639Z,4.00
2023-07-14T03:01:26.391Z,3.90
2023-07-14T03:04:14.614Z,4.40
2023-07-14T03:07:03.301Z,3.00
2023-07-14T03:09:51.862Z,4.20
2023-07-14T03:12:40.199Z,4.40
2023-07-14T03:15:28.839Z,8.00
2023-07-14T03:18:17.378Z,8.00
2023-07-14T03:21:05.806Z,8.30
2023-07-14T03:23:54.558Z,6.20
2023-07-14T03:26:42.823Z,6.50
2023-07-14T03:29:31.320Z,3.30
2023-07-14T03:32:19.612Z,6.60
2023-07-14T03:35:08.368Z,4.40
2023-07-14T03:37:56.661Z,5.90
2023-07-14T03:40:45.044Z,4.40
2023-07-14T03:43:35.752Z,3.90
2023-07-14T03:46:24.283Z,5.40
2023-07-14T03:49:13.760Z,5.20
2023-07-14T03:52:01.463Z,3.80
2023-07-14T03:54:52.452Z,5.50
2023-07-14T04:00:34.061Z,6.30
2023-07-14T04:03:22.379Z,7.70
2023-07-14T04:06:10.716Z,6.10
2023-07-14T04:09:00.376Z,4.70
2023-07-14T04:11:52.452Z,5.50
2023-07-14T04:14:41.241Z,2.60
2023-07-14T04:17:30.121Z,3.50
2023-07-14T04:20:18.265Z,3.30
2023-07-14T04:23:06.277Z,4.20
2023-07-14T04:25:54.938Z,4.10
2023-07-14T04:28:43.313Z,2.20
2023-07-14T04:31:31.805Z,4.90
2023-07-14T04:34:20.139Z,4.70
2023-07-14T04:37:08.585Z,4.20
2023-07-14T04:39:58.500Z,3.50
2023-07-14T04:42:48.279Z,4.40
2023-07-14T04:45:46.580Z,3.60
2023-07-14T04:48:35.744Z,3.90
2023-07-14T04:51:23.710Z,4.90
2023-07-14T04:54:11.716Z,5.20
2023-07-14T04:57:00.066Z,3.70
2023-07-14T04:59:47.917Z,7.60
2023-07-14T05:02:37.816Z,4.20
2023-07-14T05:05:27.069Z,6.40
2023-07-14T05:08:15.428Z,4.50
2023-07-14T05:11:03.872Z,6.60
2023-07-14T05:13:52.893Z,4.50
2023-07-14T05:16:41.221Z,5.60
2023-07-14T05:19:29.933Z,5.60
2023-07-14T05:22:17.878Z,7.30
2023-07-14T05:25:06.622Z,5.20
2023-07-14T05:27:54.855Z,6.30
2023-07-14T05:30:43.260Z,5.20
2023-07-14T05:33:31.356Z,4.90
2023-07-14T05:36:20.249Z,3.90
2023-07-14T05:39:08.568Z,5.70
2023-07-14T05:41:59.673Z,4.90
2023-07-14T05:44:47.728Z,4.30
2023-07-14T05:47:37.931Z,6.00
2023-07-14T05:50:25.866Z,5.60
2023-07-14T05:53:15.641Z,5.70
2023-07-14T05:56:04.687Z,6.60
2023-07-14T05:58:52.598Z,3.80
2023-07-14T06:01:40.738Z,5.40
2023-07-14T06:04:30.848Z,5.10
2023-07-14T06:07:19.305Z,5.20
2023-07-14T06:10:08.357Z,4.40
2023-07-14T06:12:56.644Z,5.70
2023-07-14T06:15:50.447Z,6.00
2023-07-14T06:18:39.104Z,7.00
2023-07-14T06:21:27.767Z,5.70
2023-07-14T06:24:16.080Z,5.20
2023-07-14T06:27:07.964Z,4.70
2023-07-14T06:29:59.802Z,5.90
2023-07-14T06:32:49.242Z,7.30
2023-07-14T06:35:38.170Z,7.20
2023-07-14T06:38:27.450Z,5.60
2023-07-14T06:41:15.807Z,6.20
2023-07-14T06:44:19.766Z,6.60
2023-07-14T06:47:56.814Z,7.50
2023-07-14T06:51:29.922Z,6.00
2023-07-14T06:55:02.610Z,6.30
2023-07-14T06:58:35.011Z,5.50
2023-07-14T07:02:08.047Z,4.90
2023-07-14T07:08:57.544Z,4.60
2023-07-14T07:12:32.628Z,5.10
2023-07-14T07:16:07.091Z,5.70
2023-07-14T07:19:45.400Z,6.70
2023-07-14T07:23:20.669Z,5.30
2023-07-14T07:26:55.812Z,4.30
2023-07-14T07:30:32.271Z,6.70
2023-07-14T07:34:09.360Z,7.50
2023-07-14T07:37:43.975Z,6.20
2023-07-14T07:41:18.943Z,5.20
2023-07-14T07:44:54.477Z,7.50
2023-07-14T07:48:29.278Z,11.00
2023-07-14T07:52:30.800Z,3.80
2023-07-14T07:56:29.742Z,6.20
2023-07-14T08:00:31.483Z,6.10
2023-07-14T08:04:30.862Z,8.80
2023-07-14T08:08:32.521Z,6.20
2023-07-14T08:12:31.990Z,7.70
2023-07-14T08:16:33.956Z,8.10
2023-07-14T08:20:32.874Z,6.10
2023-07-14T08:24:35.053Z,5.90
2023-07-14T08:28:34.137Z,9.20
2023-07-14T08:32:35.940Z,8.80
2023-07-14T08:36:34.946Z,10.80
2023-07-14T08:40:36.796Z,14.20
2023-07-14T08:44:38.603Z,11.30
2023-07-14T08:48:41.596Z,14.50
2023-07-14T08:52:41.077Z,13.50
2023-07-14T08:56:45.634Z,15.90
2023-07-14T09:00:44.778Z,10.40
2023-07-14T09:04:46.377Z,6.30
2023-07-14T09:08:45.900Z,6.20
2023-07-14T09:12:46.716Z,6.90
2023-07-14T09:16:45.976Z,6.00
2023-07-14T09:20:48.393Z,6.70
2023-07-14T09:24:46.917Z,7.60
2023-07-14T09:28:49.360Z,10.20
2023-07-14T09:32:47.856Z,13.60
2023-07-14T09:36:45.773Z,12.30
2023-07-14T09:40:47.982Z,13.30
2023-07-14T09:44:48.902Z,12.60
2023-07-14T09:48:50.421Z,13.60
2023-07-14T09:52:48.925Z,15.50
2023-07-14T09:56:51.353Z,12.40
2023-07-14T10:00:51.044Z,10.60
2023-07-14T10:04:53.960Z,12.00
2023-07-14T10:08:53.993Z,12.70
2023-07-14T10:12:55.800Z,15.00
2023-07-14T10:16:54.013Z,11.50
2023-07-14T10:20:56.943Z,11.50
2023-07-14T10:24:56.060Z,15.40
2023-07-14T10:28:59.709Z,13.00
2023-07-14T10:32:57.065Z,12.80
2023-07-14T10:36:58.634Z,11.90
2023-07-14T10:40:56.965Z,13.60
2023-07-14T10:45:08.002Z,13.40
2023-07-14T10:49:08.952Z,10.10
2023-07-14T10:53:07.001Z,11.10
2023-07-14T10:57:08.955Z,11.40
2023-07-14T11:01:06.946Z,11.80
2023-07-14T11:05:08.745Z,11.80
2023-07-14T11:09:07.120Z,8.60
2023-07-14T11:13:09.180Z,10.40
2023-07-14T11:17:07.079Z,10.90
2023-07-14T11:21:08.643Z,11.90
2023-07-14T11:25:07.245Z,10.40
2023-07-14T11:29:08.640Z,12.00
2023-07-14T11:33:07.120Z,8.30
2023-07-14T11:37:08.678Z,9.40
2023-07-14T11:41:05.965Z,12.60
2023-07-14T11:45:07.029Z,8.00
2023-07-14T11:49:05.120Z,10.60
2023-07-14T11:53:07.257Z,10.70
2023-07-14T11:57:05.252Z,11.70
2023-07-14T12:01:06.739Z,9.90
2023-07-14T12:05:05.156Z,9.40
2023-07-14T12:09:07.119Z,10.10
2023-07-14T12:13:05.247Z,11.60
2023-07-14T12:17:06.782Z,7.80
2023-07-14T12:21:05.182Z,6.00
2023-07-14T12:25:07.885Z,5.70
2023-07-14T12:29:07.478Z,7.20
2023-07-14T12:33:09.369Z,5.80
2023-07-14T12:37:08.406Z,8.20
2023-07-14T12:41:08.510Z,5.40
2023-07-14T12:45:04.422Z,9.50
2023-07-14T12:49:04.425Z,6.20
2023-07-14T12:53:00.246Z,9.20
2023-07-14T12:57:00.011Z,8.10
2023-07-14T13:00:55.395Z,6.80
2023-07-14T13:04:55.540Z,6.30
2023-07-14T13:08:52.461Z,6.90
2023-07-14T13:12:52.040Z,7.00
2023-07-14T13:16:47.714Z,7.20
2023-07-14T13:20:48.126Z,10.40
2023-07-14T13:24:44.371Z,9.90
2023-07-14T13:28:45.834Z,7.90
2023-07-14T13:36:22.743Z,7.80
2023-07-14T13:40:22.248Z,6.90
2023-07-14T13:44:18.496Z,8.50
2023-07-14T13:48:18.091Z,9.30
2023-07-14T13:52:14.421Z,7.30
2023-07-14T13:56:14.440Z,5.30
2023-07-14T14:00:10.874Z,5.90
2023-07-14T14:04:10.538Z,7.10
2023-07-14T14:08:07.873Z,9.00
2023-07-14T14:12:08.441Z,6.00
2023-07-14T14:16:07.129Z,7.60
2023-07-14T14:20:06.690Z,7.60
2023-07-14T14:24:03.532Z,6.80
2023-07-14T14:28:06.826Z,7.20
2023-07-14T14:32:02.905Z,7.20
2023-07-14T14:36:02.414Z,8.50
2023-07-14T14:39:59.133Z,6.60
2023-07-14T14:43:16.909Z,6.00
2023-07-14T14:46:06.598Z,9.00
2023-07-14T14:48:58.521Z,7.60
2023-07-14T14:51:47.218Z,8.50
2023-07-14T14:54:36.919Z,8.30
2023-07-14T14:57:25.831Z,8.70
2023-07-14T15:00:20.711Z,5.80
2023-07-14T15:03:11.305Z,5.40
2023-07-14T15:06:00.944Z,7.60
2023-07-14T15:08:51.885Z,5.70
2023-07-14T15:11:46.388Z,6.10
2023-07-14T15:14:36.807Z,5.50
2023-07-14T15:17:28.022Z,6.80
2023-07-14T15:20:17.121Z,8.10
2023-07-14T15:23:10.896Z,5.40
2023-07-14T15:26:02.162Z,7.60
2023-07-14T15:28:51.664Z,6.60
2023-07-14T15:31:44.777Z,7.20
2023-07-14T15:34:33.349Z,6.50
2023-07-14T15:37:22.253Z,8.90
2023-07-14T15:40:15.780Z,7.80
2023-07-14T15:43:16.213Z,7.30
2023-07-14T15:46:05.189Z,7.50
2023-07-14T15:48:56.139Z,7.70
2023-07-14T15:51:45.380Z,6.40
2023-07-14T15:54:48.782Z,6.40
2023-07-14T15:57:48.430Z,7.10
2023-07-14T16:00:37.746Z,6.10
2023-07-14T16:03:28.226Z,6.20
2023-07-14T16:06:17.650Z,7.20
2023-07-14T16:09:06.622Z,8.20
2023-07-14T16:11:56.976Z,7.50
2023-07-14T16:14:46.213Z,5.90
2023-07-14T16:17:35.436Z,10.60
2023-07-14T16:20:25.784Z,9.20
2023-07-14T16:23:23.266Z,4.90
2023-07-14T16:26:12.120Z,6.50
2023-07-14T16:29:07.708Z,6.10
2023-07-14T16:31:57.301Z,8.20
2023-07-14T16:34:47.439Z,6.50
2023-07-14T16:37:36.625Z,4.60
2023-07-14T16:40:27.948Z,6.50
2023-07-14T16:43:21.166Z,5.80
2023-07-14T16:48:58.921Z,6.10
2023-07-14T16:51:49.847Z,6.10
2023-07-14T16:54:39.212Z,6.40
2023-07-14T16:57:29.298Z,8.80
2023-07-14T17:00:28.929Z,4.70
2023-07-14T17:03:19.341Z,7.00
2023-07-14T17:06:11.675Z,5.40
2023-07-14T17:09:01.951Z,7.20
2023-07-14T17:11:51.785Z,3.60
2023-07-14T17:14:43.873Z,5.50
2023-07-14T17:17:34.347Z,3.90
2023-07-14T17:20:23.643Z,5.50
2023-07-14T17:23:16.416Z,4.00
2023-07-14T17:26:05.612Z,6.80
2023-07-14T17:28:54.182Z,6.90
2023-07-14T17:31:43.491Z,5.40
2023-07-14T17:34:32.701Z,4.60
2023-07-14T17:37:22.741Z,5.30
2023-07-14T17:40:15.496Z,2.80
2023-07-14T17:43:10.891Z,5.60
2023-07-14T17:45:59.667Z,3.40
2023-07-14T17:48:48.598Z,5.30
2023-07-14T17:51:37.479Z,7.30
2023-07-14T17:54:27.809Z,5.80
2023-07-14T17:57:17.538Z,4.70
2023-07-14T18:00:07.220Z,4.90
2023-07-14T18:03:00.108Z,9.30
2023-07-14T18:05:49.236Z,5.60
2023-07-14T18:08:39.265Z,3.80
2023-07-14T18:11:27.904Z,3.90
2023-07-14T18:14:21.722Z,3.20
2023-07-14T18:17:20.722Z,6.80
2023-07-14T18:20:14.732Z,5.30
2023-07-14T18:23:04.060Z,4.30
2023-07-14T18:25:53.099Z,5.90
2023-07-14T18:28:43.874Z,6.20
2023-07-14T18:31:32.814Z,4.80
2023-07-14T18:34:21.679Z,5.60
2023-07-14T18:37:11.431Z,8.00
2023-07-14T18:40:00.385Z,4.30
2023-07-14T18:42:50.564Z,8.20
2023-07-14T18:45:39.943Z,4.10
2023-07-14T18:48:29.418Z,4.40
2023-07-14T18:51:23.542Z,5.90
2023-07-14T18:54:22.726Z,2.50
2023-07-14T18:57:19.084Z,3.60
2023-07-14T19:00:11.350Z,6.50
2023-07-14T19:02:59.825Z,8.00
2023-07-14T19:05:49.306Z,5.10
2023-07-14T19:08:38.910Z,5.00
2023-07-14T19:11:29.374Z,5.40
2023-07-14T19:14:22.031Z,6.50
2023-07-14T19:17:14.467Z,4.20
2023-07-14T19:20:04.822Z,2.70
2023-07-14T19:22:54.243Z,7.00
2023-07-14T19:25:42.492Z,5.30
2023-07-14T19:28:33.699Z,3.20
2023-07-14T19:31:27.814Z,5.00
2023-07-14T19:34:23.458Z,7.60
2023-07-14T19:37:13.193Z,5.70
2023-07-14T19:40:02.119Z,7.00
2023-07-14T19:42:53.229Z,3.70
2023-07-14T19:45:42.423Z,6.10
2023-07-14T19:48:31.258Z,4.00
2023-07-14T19:51:24.162Z,4.10
2023-07-14T19:54:17.559Z,5.10
2023-07-14T19:57:16.240Z,7.50
2023-07-14T20:00:12.220Z,4.70
2023-07-14T20:03:05.970Z,9.70
2023-07-14T20:05:55.727Z,4.00
2023-07-14T20:08:48.334Z,5.20
2023-07-14T20:11:37.871Z,9.10
2023-07-14T20:14:32.822Z,4.10
2023-07-14T20:17:22.487Z,4.30
2023-07-14T20:20:14.564Z,8.20
2023-07-14T20:23:03.545Z,5.20
2023-07-14T20:25:53.511Z,3.80
2023-07-14T20:28:41.778Z,6.50
2023-07-14T20:31:30.171Z,9.40
2023-07-14T20:34:19.657Z,7.60
2023-07-14T20:37:15.574Z,6.50
2023-07-14T20:40:04.181Z,4.30
2023-07-14T20:42:53.068Z,5.50
2023-07-14T20:45:42.307Z,6.80
2023-07-14T20:48:31.294Z,5.80
2023-07-14T20:51:19.667Z,5.00
2023-07-14T20:54:09.321Z,10.30
2023-07-14T20:56:58.328Z,5.90
2023-07-14T20:59:46.785Z,7.50
2023-07-14T21:02:37.524Z,7.80
2023-07-14T21:05:25.835Z,6.40
2023-07-14T21:08:21.365Z,4.70
2023-07-14T21:11:16.233Z,5.10
2023-07-14T21:14:04.309Z,6.80
2023-07-14T21:16:54.968Z,4.30
2023-07-14T21:19:42.938Z,4.50
2023-07-14T21:22:31.891Z,7.10
2023-07-14T21:25:23.055Z,4.70
2023-07-14T21:28:15.299Z,6.40
2023-07-14T21:31:05.841Z,6.40
2023-07-14T21:33:54.246Z,5.70
2023-07-14T21:39:35.788Z,4.50
2023-07-14T21:42:24.567Z,6.00
2023-07-14T21:45:15.754Z,4.60
2023-07-14T21:48:10.697Z,5.50
2023-07-14T21:50:59.996Z,5.20
2023-07-14T21:53:50.755Z,5.50
2023-07-14T21:56:38.983Z,5.70
2023-07-14T21:59:27.779Z,7.00
2023-07-14T22:02:16.494Z,4.20
2023-07-14T22:05:12.511Z,6.60
2023-07-14T22:08:00.956Z,8.40
2023-07-14T22:10:51.263Z,7.80
2023-07-14T22:13:40.010Z,5.60
2023-07-14T22:16:29.551Z,6.60
2023-07-14T22:19:18.626Z,5.00
2023-07-14T22:22:09.103Z,4.50
2023-07-14T22:24:57.488Z,8.30
2023-07-14T22:27:46.219Z,4.70
2023-07-14T22:30:36.041Z,7.40
2023-07-14T22:33:29.268Z,3.30
2023-07-14T22:36:18.359Z,7.50
2023-07-14T22:39:18.746Z,7.50
2023-07-14T22:42:10.667Z,5.10
2023-07-14T22:44:59.134Z,3.70
2023-07-14T22:47:49.074Z,5.50
2023-07-14T22:50:37.827Z,6.80
2023-07-14T22:53:28.464Z,7.30
2023-07-14T22:56:16.958Z,6.40
2023-07-14T22:59:07.297Z,4.00
2023-07-14T23:01:57.207Z,5.10
2023-07-14T23:04:46.328Z,5.70
2023-07-14T23:07:35.176Z,4.30
2023-07-14T23:10:23.852Z,5.60
2023-07-14T23:13:13.410Z,5.20
2023-07-14T23:16:04.053Z,6.60
2023-07-14T23:18:55.774Z,7.90
2023-07-14T23:21:45.092Z,9.20
2023-07-14T23:24:34.502Z,5.30
2023-07-14T23:27:22.945Z,4.90
2023-07-14T23:30:13.119Z,5.20
2023-07-14T23:33:01.285Z,5.60
2023-07-14T23:35:50.460Z,3.50
2023-07-14T23:38:40.447Z,6.40
2023-07-14T23:41:30.721Z,8.00
2023-07-14T23:44:20.125Z,4.30
2023-07-14T23:47:11.901Z,6.20
2023-07-14T23:50:01.240Z,6.40
2023-07-14T23:52:50.644Z,7.80
2023-07-14T23:55:39.212Z,3.80
2023-07-14T23:58:29.847Z,7.70
